sensor_id;sensor_type;location;lat;lon;timestamp;temperature;humidity
37844;DHT22;63793;57.632;18.292;2022-12-29T00:00:05;4.60;99.90
37844;DHT22;63793;57.632;18.292;2022-12-29T00:02:41;4.60;99.90
37844;DHT22;63793;57.632;18.292;2022-12-29T00:05:08;4.70;99.90
37844;DHT22;63793;57.632;18.292;2022-12-29T00:07:35;4.70;99.90
37844;DHT22;63793;57.632;18.292;2022-12-29T00:10:03;4.70;99.90
37844;DHT22;63793;57.632;18.292;2022-12-29T00:12:30;4.70;99.90
37844;DHT22;63793;57.632;18.292;2022-12-29T00:15:16;4.70;99.90
37844;DHT22;63793;57.632;18.292;2022-12-29T00:18:02;4.70;99.90
37844;DHT22;63793;57.632;18.292;2022-12-29T00:20:29;4.70;99.90
37844;DHT22;63793;57.632;18.292;2022-12-29T00:23:14;4.70;99.90
37844;DHT22;63793;57.632;18.292;2022-12-29T00:26:03;4.80;99.90
37844;DHT22;63793;57.632;18.292;2022-12-29T00:28:50;4.70;99.90
37844;DHT22;63793;57.632;18.292;2022-12-29T00:31:35;4.80;99.90
37844;DHT22;63793;57.632;18.292;2022-12-29T00:34:21;4.80;99.90
37844;DHT22;63793;57.632;18.292;2022-12-29T00:37:06;4.80;99.90
37844;DHT22;63793;57.632;18.292;2022-12-29T00:39:33;4.80;99.90
37844;DHT22;63793;57.632;18.292;2022-12-29T00:42:18;4.80;99.90
37844;DHT22;63793;57.632;18.292;2022-12-29T00:45:04;4.80;99.90
37844;DHT22;63793;57.632;18.292;2022-12-29T00:47:31;4.80;99.90
37844;DHT22;63793;57.632;18.292;2022-12-29T00:49:58;4.80;99.90
37844;DHT22;63793;57.632;18.292;2022-12-29T00:52:26;4.80;99.90
37844;DHT22;63793;57.632;18.292;2022-12-29T00:54:53;4.80;99.90
37844;DHT22;63793;57.632;18.292;2022-12-29T00:57:20;4.70;99.90
37844;DHT22;63793;57.632;18.292;2022-12-29T00:59:47;4.70;99.90
37844;DHT22;63793;57.632;18.292;2022-12-29T01:02:15;4.70;99.90
37844;DHT22;63793;57.632;18.292;2022-12-29T01:04:42;4.70;99.90
37844;DHT22;63793;57.632;18.292;2022-12-29T01:07:09;4.70;99.90
37844;DHT22;63793;57.632;18.292;2022-12-29T01:09:36;4.70;99.90
37844;DHT22;63793;57.632;18.292;2022-12-29T01:12:22;4.70;99.90
37844;DHT22;63793;57.632;18.292;2022-12-29T01:15:11;4.70;99.90
37844;DHT22;63793;57.632;18.292;2022-12-29T01:17:38;4.70;99.90
37844;DHT22;63793;57.632;18.292;2022-12-29T01:20:05;4.70;99.90
37844;DHT22;63793;57.632;18.292;2022-12-29T01:22:32;4.70;99.90
37844;DHT22;63793;57.632;18.292;2022-12-29T01:24:59;4.70;99.90
37844;DHT22;63793;57.632;18.292;2022-12-29T01:27:26;4.80;99.90
37844;DHT22;63793;57.632;18.292;2022-12-29T01:29:53;4.80;99.90
37844;DHT22;63793;57.632;18.292;2022-12-29T01:32:20;4.80;99.90
37844;DHT22;63793;57.632;18.292;2022-12-29T01:34:47;4.80;99.90
37844;DHT22;63793;57.632;18.292;2022-12-29T01:37:14;4.80;99.90
37844;DHT22;63793;57.632;18.292;2022-12-29T01:39:41;4.80;99.90
37844;DHT22;63793;57.632;18.292;2022-12-29T01:42:17;4.80;99.90
37844;DHT22;63793;57.632;18.292;2022-12-29T01:44:56;4.70;99.90
37844;DHT22;63793;57.632;18.292;2022-12-29T01:50:01;4.70;99.90
37844;DHT22;63793;57.632;18.292;2022-12-29T01:52:31;4.70;99.90
37844;DHT22;63793;57.632;18.292;2022-12-29T01:55:02;4.70;99.90
37844;DHT22;63793;57.632;18.292;2022-12-29T01:57:34;4.70;99.90
37844;DHT22;63793;57.632;18.292;2022-12-29T02:00:06;4.60;99.90
37844;DHT22;63793;57.632;18.292;2022-12-29T02:02:43;4.60;99.90
37844;DHT22;63793;57.632;18.292;2022-12-29T02:05:17;4.60;99.90
37844;DHT22;63793;57.632;18.292;2022-12-29T02:07:45;4.60;99.90
37844;DHT22;63793;57.632;18.292;2022-12-29T02:10:13;4.50;99.90
37844;DHT22;63793;57.632;18.292;2022-12-29T02:12:40;4.50;99.90
37844;DHT22;63793;57.632;18.292;2022-12-29T02:15:08;4.50;99.90
37844;DHT22;63793;57.632;18.292;2022-12-29T02:23:50;4.40;99.90
37844;DHT22;63793;57.632;18.292;2022-12-29T02:27:23;4.40;99.90
37844;DHT22;63793;57.632;18.292;2022-12-29T02:29:39;4.40;99.90
37844;DHT22;63793;57.632;18.292;2022-12-29T02:35:23;4.40;99.90
37844;DHT22;63793;57.632;18.292;2022-12-29T02:40:26;4.40;99.90
37844;DHT22;63793;57.632;18.292;2022-12-29T02:43:08;4.30;99.90
37844;DHT22;63793;57.632;18.292;2022-12-29T02:45:51;4.30;99.90
37844;DHT22;63793;57.632;18.292;2022-12-29T02:51:08;4.30;99.90
37844;DHT22;63793;57.632;18.292;2022-12-29T02:53:37;4.30;99.90
37844;DHT22;63793;57.632;18.292;2022-12-29T02:56:23;4.40;99.90
37844;DHT22;63793;57.632;18.292;2022-12-29T02:58:51;4.40;99.90
37844;DHT22;63793;57.632;18.292;2022-12-29T03:07:05;4.40;99.90
37844;DHT22;63793;57.632;18.292;2022-12-29T03:09:49;4.40;99.90
37844;DHT22;63793;57.632;18.292;2022-12-29T03:12:41;4.40;99.90
37844;DHT22;63793;57.632;18.292;2022-12-29T03:15:44;4.40;99.90
37844;DHT22;63793;57.632;18.292;2022-12-29T03:23:43;4.40;99.90
37844;DHT22;63793;57.632;18.292;2022-12-29T03:26:14;4.40;99.90
37844;DHT22;63793;57.632;18.292;2022-12-29T03:28:53;4.40;99.90
37844;DHT22;63793;57.632;18.292;2022-12-29T03:31:24;4.40;99.90
37844;DHT22;63793;57.632;18.292;2022-12-29T03:33:53;4.40;99.90
37844;DHT22;63793;57.632;18.292;2022-12-29T03:36:42;4.40;99.90
37844;DHT22;63793;57.632;18.292;2022-12-29T03:39:12;4.50;99.90
37844;DHT22;63793;57.632;18.292;2022-12-29T03:41:41;4.50;99.90
37844;DHT22;63793;57.632;18.292;2022-12-29T03:44:12;4.50;99.90
37844;DHT22;63793;57.632;18.292;2022-12-29T03:46:40;4.50;99.90
37844;DHT22;63793;57.632;18.292;2022-12-29T03:49:07;4.50;99.90
37844;DHT22;63793;57.632;18.292;2022-12-29T03:51:34;4.50;99.90
37844;DHT22;63793;57.632;18.292;2022-12-29T03:54:04;4.50;99.90
37844;DHT22;63793;57.632;18.292;2022-12-29T03:56:31;4.50;99.90
37844;DHT22;63793;57.632;18.292;2022-12-29T03:58:58;4.50;99.90
37844;DHT22;63793;57.632;18.292;2022-12-29T04:01:36;4.50;99.90
37844;DHT22;63793;57.632;18.292;2022-12-29T04:04:04;4.50;99.90
37844;DHT22;63793;57.632;18.292;2022-12-29T04:06:30;4.50;99.90
37844;DHT22;63793;57.632;18.292;2022-12-29T04:09:04;4.50;99.90
37844;DHT22;63793;57.632;18.292;2022-12-29T04:11:36;4.50;99.90
37844;DHT22;63793;57.632;18.292;2022-12-29T04:14:03;4.50;99.90
37844;DHT22;63793;57.632;18.292;2022-12-29T04:16:32;4.60;99.90
37844;DHT22;63793;57.632;18.292;2022-12-29T04:19:04;4.60;99.90
37844;DHT22;63793;57.632;18.292;2022-12-29T04:21:32;4.50;99.90
37844;DHT22;63793;57.632;18.292;2022-12-29T04:23:59;4.60;99.90
37844;DHT22;63793;57.632;18.292;2022-12-29T04:26:26;4.60;99.90
37844;DHT22;63793;57.632;18.292;2022-12-29T04:29:11;4.60;99.90
37844;DHT22;63793;57.632;18.292;2022-12-29T04:31:48;4.60;99.90
37844;DHT22;63793;57.632;18.292;2022-12-29T04:34:16;4.60;99.90
37844;DHT22;63793;57.632;18.292;2022-12-29T04:36:45;4.60;99.90
37844;DHT22;63793;57.632;18.292;2022-12-29T04:39:12;4.60;99.90
37844;DHT22;63793;57.632;18.292;2022-12-29T04:41:40;4.60;99.90
37844;DHT22;63793;57.632;18.292;2022-12-29T04:44:12;4.60;99.90
37844;DHT22;63793;57.632;18.292;2022-12-29T04:47:00;4.60;99.90
37844;DHT22;63793;57.632;18.292;2022-12-29T04:50:02;4.60;99.90
37844;DHT22;63793;57.632;18.292;2022-12-29T04:52:42;4.60;99.90
37844;DHT22;63793;57.632;18.292;2022-12-29T04:55:10;4.60;99.90
37844;DHT22;63793;57.632;18.292;2022-12-29T04:57:37;4.60;99.90
37844;DHT22;63793;57.632;18.292;2022-12-29T05:00:06;4.70;99.90
37844;DHT22;63793;57.632;18.292;2022-12-29T05:02:36;4.70;99.90
37844;DHT22;63793;57.632;18.292;2022-12-29T05:05:04;4.70;99.90
37844;DHT22;63793;57.632;18.292;2022-12-29T05:07:33;4.70;99.90
37844;DHT22;63793;57.632;18.292;2022-12-29T05:10:00;4.70;99.90
37844;DHT22;63793;57.632;18.292;2022-12-29T05:12:34;4.70;99.90
37844;DHT22;63793;57.632;18.292;2022-12-29T05:15:01;4.70;99.90
37844;DHT22;63793;57.632;18.292;2022-12-29T05:17:30;4.80;99.90
37844;DHT22;63793;57.632;18.292;2022-12-29T05:19:57;4.80;99.90
37844;DHT22;63793;57.632;18.292;2022-12-29T05:22:24;4.80;99.90
37844;DHT22;63793;57.632;18.292;2022-12-29T05:24:52;4.80;99.90
37844;DHT22;63793;57.632;18.292;2022-12-29T05:27:19;4.80;99.90
37844;DHT22;63793;57.632;18.292;2022-12-29T05:29:58;4.80;99.90
37844;DHT22;63793;57.632;18.292;2022-12-29T05:32:26;4.90;99.90
37844;DHT22;63793;57.632;18.292;2022-12-29T05:34:53;4.90;99.90
37844;DHT22;63793;57.632;18.292;2022-12-29T05:37:20;4.90;99.90
37844;DHT22;63793;57.632;18.292;2022-12-29T05:39:47;4.90;99.90
37844;DHT22;63793;57.632;18.292;2022-12-29T05:42:14;4.90;99.90
37844;DHT22;63793;57.632;18.292;2022-12-29T05:45:12;4.90;99.90
37844;DHT22;63793;57.632;18.292;2022-12-29T05:48:04;4.90;99.90
37844;DHT22;63793;57.632;18.292;2022-12-29T05:50:42;5.00;99.90
37844;DHT22;63793;57.632;18.292;2022-12-29T05:53:11;5.00;99.90
37844;DHT22;63793;57.632;18.292;2022-12-29T05:55:38;5.00;99.90
37844;DHT22;63793;57.632;18.292;2022-12-29T05:58:13;5.00;99.90
37844;DHT22;63793;57.632;18.292;2022-12-29T06:00:40;5.10;99.90
37844;DHT22;63793;57.632;18.292;2022-12-29T06:03:08;5.00;99.90
37844;DHT22;63793;57.632;18.292;2022-12-29T06:05:35;5.00;99.90
37844;DHT22;63793;57.632;18.292;2022-12-29T06:08:03;5.10;99.90
37844;DHT22;63793;57.632;18.292;2022-12-29T06:10:30;5.10;99.90
37844;DHT22;63793;57.632;18.292;2022-12-29T06:13:01;5.10;99.90
37844;DHT22;63793;57.632;18.292;2022-12-29T06:15:34;5.10;99.90
37844;DHT22;63793;57.632;18.292;2022-12-29T06:18:04;5.10;99.90
37844;DHT22;63793;57.632;18.292;2022-12-29T06:20:31;5.20;99.90
37844;DHT22;63793;57.632;18.292;2022-12-29T06:22:57;5.10;99.90
37844;DHT22;63793;57.632;18.292;2022-12-29T06:25:24;5.20;99.90
37844;DHT22;63793;57.632;18.292;2022-12-29T06:27:51;5.20;99.90
37844;DHT22;63793;57.632;18.292;2022-12-29T06:30:19;5.20;99.90
37844;DHT22;63793;57.632;18.292;2022-12-29T06:32:46;5.20;99.90
37844;DHT22;63793;57.632;18.292;2022-12-29T06:35:13;5.20;99.90
37844;DHT22;63793;57.632;18.292;2022-12-29T06:37:46;5.20;99.90
37844;DHT22;63793;57.632;18.292;2022-12-29T06:40:13;5.20;99.90
37844;DHT22;63793;57.632;18.292;2022-12-29T06:43:09;5.20;99.90
37844;DHT22;63793;57.632;18.292;2022-12-29T06:45:43;5.20;99.90
37844;DHT22;63793;57.632;18.292;2022-12-29T06:48:10;5.20;99.90
37844;DHT22;63793;57.632;18.292;2022-12-29T06:50:37;5.20;99.90
37844;DHT22;63793;57.632;18.292;2022-12-29T06:53:04;5.30;99.90
37844;DHT22;63793;57.632;18.292;2022-12-29T06:55:31;5.30;99.90
37844;DHT22;63793;57.632;18.292;2022-12-29T06:57:58;5.40;99.90
37844;DHT22;63793;57.632;18.292;2022-12-29T07:00:25;5.40;99.90
37844;DHT22;63793;57.632;18.292;2022-12-29T07:02:54;5.40;99.90
37844;DHT22;63793;57.632;18.292;2022-12-29T07:05:22;5.50;99.90
37844;DHT22;63793;57.632;18.292;2022-12-29T07:07:49;5.60;99.90
37844;DHT22;63793;57.632;18.292;2022-12-29T07:10:15;5.60;99.90
37844;DHT22;63793;57.632;18.292;2022-12-29T07:12:42;5.70;99.90
37844;DHT22;63793;57.632;18.292;2022-12-29T07:15:09;5.70;99.90
37844;DHT22;63793;57.632;18.292;2022-12-29T07:17:36;5.70;99.90
37844;DHT22;63793;57.632;18.292;2022-12-29T07:20:04;5.70;99.90
37844;DHT22;63793;57.632;18.292;2022-12-29T07:22:31;5.80;99.90
37844;DHT22;63793;57.632;18.292;2022-12-29T07:24:58;5.80;99.90
37844;DHT22;63793;57.632;18.292;2022-12-29T07:27:24;5.80;99.90
37844;DHT22;63793;57.632;18.292;2022-12-29T07:29:51;5.90;99.90
37844;DHT22;63793;57.632;18.292;2022-12-29T07:32:18;5.90;99.90
37844;DHT22;63793;57.632;18.292;2022-12-29T07:34:45;5.90;99.90
37844;DHT22;63793;57.632;18.292;2022-12-29T07:37:16;5.90;99.90
37844;DHT22;63793;57.632;18.292;2022-12-29T07:39:44;5.90;99.90
37844;DHT22;63793;57.632;18.292;2022-12-29T07:42:11;5.90;99.90
37844;DHT22;63793;57.632;18.292;2022-12-29T07:44:43;5.90;99.90
37844;DHT22;63793;57.632;18.292;2022-12-29T07:47:36;5.90;99.90
37844;DHT22;63793;57.632;18.292;2022-12-29T07:50:04;5.90;99.90
37844;DHT22;63793;57.632;18.292;2022-12-29T07:52:31;5.90;99.90
37844;DHT22;63793;57.632;18.292;2022-12-29T07:54:57;5.90;99.90
37844;DHT22;63793;57.632;18.292;2022-12-29T07:57:24;6.00;99.90
37844;DHT22;63793;57.632;18.292;2022-12-29T07:59:58;6.00;99.90
37844;DHT22;63793;57.632;18.292;2022-12-29T08:02:25;6.00;99.90
37844;DHT22;63793;57.632;18.292;2022-12-29T08:04:53;6.00;99.90
37844;DHT22;63793;57.632;18.292;2022-12-29T08:07:20;6.00;99.90
37844;DHT22;63793;57.632;18.292;2022-12-29T08:09:47;6.00;99.90
37844;DHT22;63793;57.632;18.292;2022-12-29T08:12:14;6.00;99.90
37844;DHT22;63793;57.632;18.292;2022-12-29T08:14:40;6.00;99.90
37844;DHT22;63793;57.632;18.292;2022-12-29T08:17:07;6.10;99.90
37844;DHT22;63793;57.632;18.292;2022-12-29T08:19:34;6.00;99.90
37844;DHT22;63793;57.632;18.292;2022-12-29T08:22:01;6.00;99.90
37844;DHT22;63793;57.632;18.292;2022-12-29T08:24:28;6.10;99.90
37844;DHT22;63793;57.632;18.292;2022-12-29T08:26:55;6.10;99.90
37844;DHT22;63793;57.632;18.292;2022-12-29T08:29:22;6.10;99.90
37844;DHT22;63793;57.632;18.292;2022-12-29T08:31:49;6.10;99.90
37844;DHT22;63793;57.632;18.292;2022-12-29T08:34:16;6.10;99.90
37844;DHT22;63793;57.632;18.292;2022-12-29T08:36:43;6.10;99.90
37844;DHT22;63793;57.632;18.292;2022-12-29T08:39:09;6.10;99.90
37844;DHT22;63793;57.632;18.292;2022-12-29T08:41:36;6.10;99.90
37844;DHT22;63793;57.632;18.292;2022-12-29T08:44:03;6.10;99.90
37844;DHT22;63793;57.632;18.292;2022-12-29T08:46:30;6.10;99.90
37844;DHT22;63793;57.632;18.292;2022-12-29T08:48:58;6.10;99.90
37844;DHT22;63793;57.632;18.292;2022-12-29T08:51:24;6.10;99.90
37844;DHT22;63793;57.632;18.292;2022-12-29T08:53:52;6.20;99.90
37844;DHT22;63793;57.632;18.292;2022-12-29T08:56:19;6.10;99.90
37844;DHT22;63793;57.632;18.292;2022-12-29T08:58:51;6.10;99.90
37844;DHT22;63793;57.632;18.292;2022-12-29T09:01:19;6.10;99.90
37844;DHT22;63793;57.632;18.292;2022-12-29T09:03:47;6.20;99.90
37844;DHT22;63793;57.632;18.292;2022-12-29T09:06:34;6.10;99.90
37844;DHT22;63793;57.632;18.292;2022-12-29T09:09:06;6.10;99.90
37844;DHT22;63793;57.632;18.292;2022-12-29T09:11:33;6.20;99.90
37844;DHT22;63793;57.632;18.292;2022-12-29T09:14:00;6.20;99.90
37844;DHT22;63793;57.632;18.292;2022-12-29T09:16:27;6.20;99.90
37844;DHT22;63793;57.632;18.292;2022-12-29T09:18:54;6.20;99.90
37844;DHT22;63793;57.632;18.292;2022-12-29T09:21:21;6.20;99.90
37844;DHT22;63793;57.632;18.292;2022-12-29T09:23:48;6.20;99.90
37844;DHT22;63793;57.632;18.292;2022-12-29T09:26:15;6.20;99.90
37844;DHT22;63793;57.632;18.292;2022-12-29T09:28:42;6.20;99.90
37844;DHT22;63793;57.632;18.292;2022-12-29T09:31:11;6.20;99.90
37844;DHT22;63793;57.632;18.292;2022-12-29T09:33:38;6.20;99.90
37844;DHT22;63793;57.632;18.292;2022-12-29T09:36:05;6.20;99.90
37844;DHT22;63793;57.632;18.292;2022-12-29T09:38:32;6.20;99.90
37844;DHT22;63793;57.632;18.292;2022-12-29T09:41:06;6.20;99.90
37844;DHT22;63793;57.632;18.292;2022-12-29T09:46:32;6.20;99.90
37844;DHT22;63793;57.632;18.292;2022-12-29T09:49:04;6.20;99.90
37844;DHT22;63793;57.632;18.292;2022-12-29T09:51:37;6.30;99.90
37844;DHT22;63793;57.632;18.292;2022-12-29T09:56:48;6.20;99.90
37844;DHT22;63793;57.632;18.292;2022-12-29T09:59:20;6.30;99.90
37844;DHT22;63793;57.632;18.292;2022-12-29T10:02:04;6.30;99.90
37844;DHT22;63793;57.632;18.292;2022-12-29T10:04:33;6.30;99.90
37844;DHT22;63793;57.632;18.292;2022-12-29T10:10:29;6.30;99.90
37844;DHT22;63793;57.632;18.292;2022-12-29T10:13:21;6.30;99.90
37844;DHT22;63793;57.632;18.292;2022-12-29T10:16:15;6.30;99.90
37844;DHT22;63793;57.632;18.292;2022-12-29T10:24:07;6.40;99.90
37844;DHT22;63793;57.632;18.292;2022-12-29T10:26:40;6.30;99.90
37844;DHT22;63793;57.632;18.292;2022-12-29T10:29:36;6.30;99.90
37844;DHT22;63793;57.632;18.292;2022-12-29T10:34:53;6.40;99.90
37844;DHT22;63793;57.632;18.292;2022-12-29T10:37:30;6.40;99.90
37844;DHT22;63793;57.632;18.292;2022-12-29T10:40:11;6.40;99.90
37844;DHT22;63793;57.632;18.292;2022-12-29T10:42:41;6.40;99.90
37844;DHT22;63793;57.632;18.292;2022-12-29T10:45:16;6.40;99.90
37844;DHT22;63793;57.632;18.292;2022-12-29T10:48:02;6.40;99.90
37844;DHT22;63793;57.632;18.292;2022-12-29T10:50:30;6.40;99.90
37844;DHT22;63793;57.632;18.292;2022-12-29T10:53:02;6.40;99.90
37844;DHT22;63793;57.632;18.292;2022-12-29T10:55:35;6.40;99.90
37844;DHT22;63793;57.632;18.292;2022-12-29T10:58:06;6.40;99.90
37844;DHT22;63793;57.632;18.292;2022-12-29T11:00:33;6.40;99.90
37844;DHT22;63793;57.632;18.292;2022-12-29T11:08:25;6.50;99.90
37844;DHT22;63793;57.632;18.292;2022-12-29T11:11:09;6.50;99.90
37844;DHT22;63793;57.632;18.292;2022-12-29T11:13:50;6.50;99.90
37844;DHT22;63793;57.632;18.292;2022-12-29T11:16:29;6.50;99.90
37844;DHT22;63793;57.632;18.292;2022-12-29T11:18:57;6.50;99.90
37844;DHT22;63793;57.632;18.292;2022-12-29T11:24:02;6.50;99.90
37844;DHT22;63793;57.632;18.292;2022-12-29T11:26:30;6.50;99.90
37844;DHT22;63793;57.632;18.292;2022-12-29T11:31:43;6.50;99.90
37844;DHT22;63793;57.632;18.292;2022-12-29T11:34:26;6.60;99.90
37844;DHT22;63793;57.632;18.292;2022-12-29T11:36:59;6.60;99.90
37844;DHT22;63793;57.632;18.292;2022-12-29T11:42:17;6.60;99.90
37844;DHT22;63793;57.632;18.292;2022-12-29T11:44:47;6.60;99.90
37844;DHT22;63793;57.632;18.292;2022-12-29T11:47:27;6.60;99.90
37844;DHT22;63793;57.632;18.292;2022-12-29T11:50:00;6.60;99.90
37844;DHT22;63793;57.632;18.292;2022-12-29T11:52:31;6.60;99.90
37844;DHT22;63793;57.632;18.292;2022-12-29T11:55:00;6.60;99.90
37844;DHT22;63793;57.632;18.292;2022-12-29T11:57:28;6.60;99.90
37844;DHT22;63793;57.632;18.292;2022-12-29T11:59:57;6.60;99.90
37844;DHT22;63793;57.632;18.292;2022-12-29T12:03:04;6.60;99.90
37844;DHT22;63793;57.632;18.292;2022-12-29T12:05:45;6.60;99.90
37844;DHT22;63793;57.632;18.292;2022-12-29T12:11:10;6.60;99.90
37844;DHT22;63793;57.632;18.292;2022-12-29T12:13:46;6.60;99.90
37844;DHT22;63793;57.632;18.292;2022-12-29T12:16:21;6.60;99.90
37844;DHT22;63793;57.632;18.292;2022-12-29T12:19:31;6.60;99.90
37844;DHT22;63793;57.632;18.292;2022-12-29T12:22:01;6.60;99.90
37844;DHT22;63793;57.632;18.292;2022-12-29T12:24:50;6.60;99.90
37844;DHT22;63793;57.632;18.292;2022-12-29T12:27:26;6.70;99.90
37844;DHT22;63793;57.632;18.292;2022-12-29T12:32:46;6.70;99.90
37844;DHT22;63793;57.632;18.292;2022-12-29T12:35:22;6.70;99.90
37844;DHT22;63793;57.632;18.292;2022-12-29T12:40:58;6.60;99.90
37844;DHT22;63793;57.632;18.292;2022-12-29T12:43:45;6.70;99.90
37844;DHT22;63793;57.632;18.292;2022-12-29T12:46:24;6.70;99.90
37844;DHT22;63793;57.632;18.292;2022-12-29T12:51:53;6.60;99.90
37844;DHT22;63793;57.632;18.292;2022-12-29T12:54:57;6.60;99.90
37844;DHT22;63793;57.632;18.292;2022-12-29T13:00:25;6.60;99.90
37844;DHT22;63793;57.632;18.292;2022-12-29T13:03:21;6.60;99.90
37844;DHT22;63793;57.632;18.292;2022-12-29T13:11:55;6.70;99.90
37844;DHT22;63793;57.632;18.292;2022-12-29T13:17:36;6.70;99.90
37844;DHT22;63793;57.632;18.292;2022-12-29T13:26:20;6.70;99.90
37844;DHT22;63793;57.632;18.292;2022-12-29T13:29:04;6.70;99.90
37844;DHT22;63793;57.632;18.292;2022-12-29T13:31:52;6.70;99.90
37844;DHT22;63793;57.632;18.292;2022-12-29T13:34:39;6.70;99.90
37844;DHT22;63793;57.632;18.292;2022-12-29T13:37:13;6.70;99.90
37844;DHT22;63793;57.632;18.292;2022-12-29T13:39:47;6.70;99.90
37844;DHT22;63793;57.632;18.292;2022-12-29T13:42:16;6.70;99.90
37844;DHT22;63793;57.632;18.292;2022-12-29T13:45:03;6.70;99.90
37844;DHT22;63793;57.632;18.292;2022-12-29T13:50:19;6.70;99.90
37844;DHT22;63793;57.632;18.292;2022-12-29T13:53:11;6.70;99.90
37844;DHT22;63793;57.632;18.292;2022-12-29T13:55:55;6.70;99.90
37844;DHT22;63793;57.632;18.292;2022-12-29T13:58:52;6.70;99.90
37844;DHT22;63793;57.632;18.292;2022-12-29T14:01:39;6.70;99.90
37844;DHT22;63793;57.632;18.292;2022-12-29T14:04:17;6.70;99.90
37844;DHT22;63793;57.632;18.292;2022-12-29T14:07:03;6.70;99.90
37844;DHT22;63793;57.632;18.292;2022-12-29T14:09:50;6.70;99.90
37844;DHT22;63793;57.632;18.292;2022-12-29T14:14:47;6.60;99.90
37844;DHT22;63793;57.632;18.292;2022-12-29T14:17:19;6.60;99.90
37844;DHT22;63793;57.632;18.292;2022-12-29T14:19:50;6.70;99.90
37844;DHT22;63793;57.632;18.292;2022-12-29T14:22:24;6.60;99.90
37844;DHT22;63793;57.632;18.292;2022-12-29T14:24:59;6.60;99.90
37844;DHT22;63793;57.632;18.292;2022-12-29T14:29:56;6.60;99.90
37844;DHT22;63793;57.632;18.292;2022-12-29T14:34:59;6.70;99.90
37844;DHT22;63793;57.632;18.292;2022-12-29T14:37:35;6.70;99.90
37844;DHT22;63793;57.632;18.292;2022-12-29T14:42:33;6.70;99.90
37844;DHT22;63793;57.632;18.292;2022-12-29T14:45:05;6.70;99.90
37844;DHT22;63793;57.632;18.292;2022-12-29T14:47:39;6.70;99.90
37844;DHT22;63793;57.632;18.292;2022-12-29T14:52:49;6.80;99.90
37844;DHT22;63793;57.632;18.292;2022-12-29T14:55:43;6.80;99.90
37844;DHT22;63793;57.632;18.292;2022-12-29T14:58:20;6.80;99.90
37844;DHT22;63793;57.632;18.292;2022-12-29T15:00:48;6.80;99.90
37844;DHT22;63793;57.632;18.292;2022-12-29T15:06:04;6.80;99.90
37844;DHT22;63793;57.632;18.292;2022-12-29T15:08:39;6.80;99.90
37844;DHT22;63793;57.632;18.292;2022-12-29T15:11:48;6.80;99.90
37844;DHT22;63793;57.632;18.292;2022-12-29T15:14:37;6.80;99.90
37844;DHT22;63793;57.632;18.292;2022-12-29T15:17:26;6.80;99.90
37844;DHT22;63793;57.632;18.292;2022-12-29T15:19:55;6.80;99.90
37844;DHT22;63793;57.632;18.292;2022-12-29T15:22:22;6.80;99.90
37844;DHT22;63793;57.632;18.292;2022-12-29T15:24:54;6.80;99.90
37844;DHT22;63793;57.632;18.292;2022-12-29T15:27:23;6.70;99.90
37844;DHT22;63793;57.632;18.292;2022-12-29T15:29:59;6.70;99.90
37844;DHT22;63793;57.632;18.292;2022-12-29T15:32:38;6.70;99.90
37844;DHT22;63793;57.632;18.292;2022-12-29T15:37:49;6.70;99.90
37844;DHT22;63793;57.632;18.292;2022-12-29T15:40:27;6.70;99.90
37844;DHT22;63793;57.632;18.292;2022-12-29T15:43:12;6.70;99.90
37844;DHT22;63793;57.632;18.292;2022-12-29T15:45:41;6.70;99.90
37844;DHT22;63793;57.632;18.292;2022-12-29T15:48:20;6.70;99.90
37844;DHT22;63793;57.632;18.292;2022-12-29T15:50:49;6.70;99.90
37844;DHT22;63793;57.632;18.292;2022-12-29T15:53:32;6.70;99.90
37844;DHT22;63793;57.632;18.292;2022-12-29T15:56:08;6.70;99.90
37844;DHT22;63793;57.632;18.292;2022-12-29T15:58:44;6.70;99.90
37844;DHT22;63793;57.632;18.292;2022-12-29T16:01:30;6.70;99.90
37844;DHT22;63793;57.632;18.292;2022-12-29T16:03:58;6.70;99.90
37844;DHT22;63793;57.632;18.292;2022-12-29T16:09:33;6.80;99.90
37844;DHT22;63793;57.632;18.292;2022-12-29T16:12:06;6.80;99.90
37844;DHT22;63793;57.632;18.292;2022-12-29T16:17:04;6.80;99.90
37844;DHT22;63793;57.632;18.292;2022-12-29T16:19:37;6.80;99.90
37844;DHT22;63793;57.632;18.292;2022-12-29T16:22:16;6.80;99.90
37844;DHT22;63793;57.632;18.292;2022-12-29T16:24:45;6.80;99.90
37844;DHT22;63793;57.632;18.292;2022-12-29T16:27:21;6.80;99.90
37844;DHT22;63793;57.632;18.292;2022-12-29T16:29:53;6.80;99.90
37844;DHT22;63793;57.632;18.292;2022-12-29T16:32:25;6.80;99.90
37844;DHT22;63793;57.632;18.292;2022-12-29T16:35:11;6.70;99.90
37844;DHT22;63793;57.632;18.292;2022-12-29T16:37:39;6.80;99.90
37844;DHT22;63793;57.632;18.292;2022-12-29T16:42:46;6.80;99.90
37844;DHT22;63793;57.632;18.292;2022-12-29T16:50:43;6.80;99.90
37844;DHT22;63793;57.632;18.292;2022-12-29T16:56:07;6.70;99.90
37844;DHT22;63793;57.632;18.292;2022-12-29T16:58:35;6.70;99.90
37844;DHT22;63793;57.632;18.292;2022-12-29T17:01:04;6.70;99.90
37844;DHT22;63793;57.632;18.292;2022-12-29T17:03:37;6.70;99.90
37844;DHT22;63793;57.632;18.292;2022-12-29T17:06:05;6.60;99.90
37844;DHT22;63793;57.632;18.292;2022-12-29T17:08:40;6.60;99.90
37844;DHT22;63793;57.632;18.292;2022-12-29T17:14:35;6.60;99.90
37844;DHT22;63793;57.632;18.292;2022-12-29T17:17:05;6.60;99.90
37844;DHT22;63793;57.632;18.292;2022-12-29T17:19:37;6.60;99.90
37844;DHT22;63793;57.632;18.292;2022-12-29T17:22:23;6.60;99.90
37844;DHT22;63793;57.632;18.292;2022-12-29T17:24:52;6.60;99.90
37844;DHT22;63793;57.632;18.292;2022-12-29T17:27:30;6.60;99.90
37844;DHT22;63793;57.632;18.292;2022-12-29T17:30:01;6.60;99.90
37844;DHT22;63793;57.632;18.292;2022-12-29T17:32:29;6.60;99.90
37844;DHT22;63793;57.632;18.292;2022-12-29T17:34:56;6.60;99.90
37844;DHT22;63793;57.632;18.292;2022-12-29T17:39:50;6.60;99.90
37844;DHT22;63793;57.632;18.292;2022-12-29T17:42:18;6.70;99.90
37844;DHT22;63793;57.632;18.292;2022-12-29T17:44:46;6.70;99.90
37844;DHT22;63793;57.632;18.292;2022-12-29T17:47:14;6.70;99.90
37844;DHT22;63793;57.632;18.292;2022-12-29T17:49:41;6.60;99.90
37844;DHT22;63793;57.632;18.292;2022-12-29T17:52:12;6.70;99.90
37844;DHT22;63793;57.632;18.292;2022-12-29T17:54:49;6.70;99.90
37844;DHT22;63793;57.632;18.292;2022-12-29T17:57:18;6.70;99.90
37844;DHT22;63793;57.632;18.292;2022-12-29T17:59:45;6.70;99.90
37844;DHT22;63793;57.632;18.292;2022-12-29T18:04:50;6.70;99.90
37844;DHT22;63793;57.632;18.292;2022-12-29T18:07:17;6.70;99.90
37844;DHT22;63793;57.632;18.292;2022-12-29T18:09:44;6.70;99.90
37844;DHT22;63793;57.632;18.292;2022-12-29T18:12:34;6.70;99.90
37844;DHT22;63793;57.632;18.292;2022-12-29T18:15:04;6.60;99.90
37844;DHT22;63793;57.632;18.292;2022-12-29T18:17:31;6.60;99.90
37844;DHT22;63793;57.632;18.292;2022-12-29T18:19:58;6.50;99.90